createdAt,value
2017-08-25T00:00:09.130Z,0
2017-08-25T00:01:09.881Z,0
2017-08-25T00:02:10.604Z,0
2017-08-25T00:03:11.326Z,0
2017-08-25T00:04:12.053Z,0
2017-08-25T00:05:12.776Z,0
2017-08-25T00:06:13.501Z,0
2017-08-25T00:07:14.221Z,0
2017-08-25T00:08:14.942Z,0
2017-08-25T00:09:15.688Z,0
2017-08-25T00:10:16.436Z,0
2017-08-25T00:11:17.157Z,0
2017-08-25T00:12:17.905Z,0
2017-08-25T00:13:18.631Z,0
2017-08-25T00:14:19.380Z,0
2017-08-25T00:15:20.126Z,0
2017-08-25T00:16:20.849Z,0
2017-08-25T00:17:21.570Z,0
2017-08-25T00:18:22.292Z,0
2017-08-25T00:19:23.016Z,0
2017-08-25T00:20:23.741Z,0
2017-08-25T00:21:24.464Z,0
2017-08-25T00:22:25.190Z,0
2017-08-25T00:23:25.911Z,0
2017-08-25T00:24:26.633Z,0
2017-08-25T00:25:27.358Z,0
2017-08-25T00:26:28.077Z,0
2017-08-25T00:27:28.802Z,0
2017-08-25T00:28:29.525Z,0
2017-08-25T00:29:30.272Z,0
2017-08-25T00:30:30.996Z,0
2017-08-25T00:31:31.717Z,0
2017-08-25T00:32:32.437Z,0
2017-08-25T00:33:33.158Z,0
2017-08-25T00:34:33.882Z,0
2017-08-25T00:35:34.626Z,0
2017-08-25T00:36:35.351Z,0
2017-08-25T00:37:36.073Z,0
2017-08-25T00:38:36.797Z,0
2017-08-25T00:39:37.520Z,0
2017-08-25T00:40:38.268Z,0
2017-08-25T00:41:38.987Z,0
2017-08-25T00:42:39.730Z,0
2017-08-25T00:43:40.475Z,0
2017-08-25T00:44:41.200Z,0
2017-08-25T00:45:41.921Z,0
2017-08-25T00:46:42.647Z,0
2017-08-25T00:47:43.398Z,0
2017-08-25T00:48:44.117Z,0
2017-08-25T00:49:44.840Z,0
2017-08-25T00:50:45.565Z,0
2017-08-25T00:51:46.306Z,0
2017-08-25T00:52:47.052Z,0
2017-08-25T00:53:47.772Z,0
2017-08-25T00:54:48.496Z,0
2017-08-25T00:55:49.218Z,0
2017-08-25T00:56:49.941Z,0
2017-08-25T00:57:50.682Z,0
2017-08-25T00:58:51.406Z,0
2017-08-25T00:59:52.148Z,0
2017-08-25T01:00:52.890Z,0
2017-08-25T01:01:53.613Z,0
2017-08-25T01:02:54.332Z,0
2017-08-25T01:03:55.055Z,0
2017-08-25T01:04:55.795Z,0
2017-08-25T01:05:56.540Z,0
2017-08-25T01:06:57.261Z,0
2017-08-25T01:07:57.986Z,0
2017-08-25T01:08:58.708Z,0
2017-08-25T01:09:59.429Z,0
2017-08-25T01:11:00.173Z,0
2017-08-25T01:12:00.915Z,0
2017-08-25T01:13:01.638Z,0
2017-08-25T01:14:02.357Z,0
2017-08-25T01:15:03.078Z,0
2017-08-25T01:16:03.801Z,0
2017-08-25T01:17:04.523Z,0
2017-08-25T01:18:05.242Z,0
2017-08-25T01:19:05.983Z,0
2017-08-25T01:20:06.704Z,0
2017-08-25T01:21:07.446Z,0
2017-08-25T01:22:08.169Z,0
2017-08-25T01:23:08.894Z,0
2017-08-25T01:24:09.633Z,0
2017-08-25T01:25:10.358Z,0
2017-08-25T01:26:11.082Z,0
2017-08-25T01:27:11.799Z,0
2017-08-25T01:28:12.524Z,0
2017-08-25T01:29:13.242Z,0
2017-08-25T01:30:13.965Z,0
2017-08-25T01:31:14.688Z,0
2017-08-25T01:32:15.430Z,0
2017-08-25T01:33:16.170Z,0
2017-08-25T01:34:16.896Z,0
2017-08-25T01:35:17.620Z,0
2017-08-25T01:36:18.362Z,0
2017-08-25T01:37:19.086Z,0
2017-08-25T01:38:19.811Z,0
2017-08-25T01:39:20.530Z,0
2017-08-25T01:40:21.253Z,0
2017-08-25T01:41:21.977Z,0
2017-08-25T01:42:22.699Z,0
2017-08-25T01:43:23.420Z,0
2017-08-25T01:44:24.144Z,0
2017-08-25T01:45:24.869Z,0
2017-08-25T01:46:25.588Z,0
2017-08-25T01:47:26.333Z,0
2017-08-25T01:48:27.056Z,0
2017-08-25T01:49:27.774Z,0
2017-08-25T01:50:28.500Z,0
2017-08-25T01:51:29.239Z,0
2017-08-25T01:52:29.959Z,0
2017-08-25T01:53:30.701Z,0
2017-08-25T01:54:31.424Z,0
2017-08-25T01:55:32.146Z,0
2017-08-25T01:56:32.888Z,0
2017-08-25T01:57:33.630Z,0
2017-08-25T01:58:34.372Z,0
2017-08-25T01:59:35.093Z,0
2017-08-25T02:00:35.815Z,0
2017-08-25T02:01:36.538Z,0
2017-08-25T02:02:37.266Z,0
2017-08-25T02:03:37.983Z,0
2017-08-25T02:04:38.709Z,0
2017-08-25T02:05:39.433Z,0
2017-08-25T02:06:40.153Z,0
2017-08-25T02:07:40.874Z,0
2017-08-25T02:08:41.598Z,0
2017-08-25T02:09:42.323Z,0
2017-08-25T02:10:43.044Z,0
2017-08-25T02:11:43.787Z,0
2017-08-25T02:12:44.511Z,0
2017-08-25T02:13:45.251Z,0
2017-08-25T02:14:45.970Z,0
2017-08-25T02:15:46.694Z,0
2017-08-25T02:16:47.419Z,0
2017-08-25T02:17:48.140Z,0
2017-08-25T02:18:48.867Z,0
2017-08-25T02:19:49.612Z,0
2017-08-25T02:20:50.355Z,0
2017-08-25T02:21:51.081Z,0
2017-08-25T02:22:51.819Z,0
2017-08-25T02:23:52.543Z,0
2017-08-25T02:24:53.264Z,0
2017-08-25T02:25:53.985Z,0
2017-08-25T02:26:54.707Z,0
2017-08-25T02:27:55.432Z,0
2017-08-25T02:28:56.178Z,0
2017-08-25T02:29:56.900Z,0
2017-08-25T02:30:57.622Z,0
2017-08-25T02:31:58.344Z,0
2017-08-25T02:32:59.066Z,0
2017-08-25T02:33:59.792Z,0
2017-08-25T02:35:00.512Z,0
2017-08-25T02:36:01.257Z,0
2017-08-25T02:37:01.998Z,0
2017-08-25T02:38:02.720Z,0
2017-08-25T02:39:03.444Z,0
2017-08-25T02:40:04.167Z,0
2017-08-25T02:41:04.891Z,0
2017-08-25T02:42:05.612Z,0
2017-08-25T02:43:06.357Z,0
2017-08-25T02:44:07.078Z,0
2017-08-25T02:45:07.801Z,0
2017-08-25T02:46:08.537Z,0
2017-08-25T02:47:09.263Z,0
2017-08-25T02:48:09.984Z,0
2017-08-25T02:49:10.707Z,0
2017-08-25T02:50:11.453Z,0
2017-08-25T02:51:12.191Z,0
2017-08-25T02:52:12.914Z,0
2017-08-25T02:53:13.637Z,0
2017-08-25T02:54:14.356Z,0
2017-08-25T02:55:15.079Z,0
2017-08-25T02:56:15.821Z,0
2017-08-25T02:57:16.549Z,0
2017-08-25T02:58:17.292Z,0
2017-08-25T02:59:18.012Z,0
2017-08-25T03:00:18.738Z,0
2017-08-25T03:01:19.481Z,0
2017-08-25T03:02:20.205Z,0
2017-08-25T03:03:20.923Z,0
2017-08-25T03:04:21.644Z,0
2017-08-25T03:05:22.368Z,0
2017-08-25T03:06:23.092Z,0
2017-08-25T03:07:23.811Z,0
2017-08-25T03:08:24.533Z,0
2017-08-25T03:09:25.259Z,0
2017-08-25T03:10:25.981Z,0
2017-08-25T03:11:26.705Z,0
2017-08-25T03:12:27.429Z,0
2017-08-25T03:13:28.148Z,0
2017-08-25T03:14:28.874Z,0
2017-08-25T03:15:29.599Z,0
2017-08-25T03:16:30.319Z,0
2017-08-25T03:17:31.042Z,0
2017-08-25T03:18:31.764Z,0
2017-08-25T03:19:32.485Z,0
2017-08-25T03:20:33.225Z,0
2017-08-25T03:21:33.950Z,0
2017-08-25T03:22:34.693Z,0
2017-08-25T03:23:35.434Z,0
2017-08-25T03:24:36.160Z,0
2017-08-25T03:25:36.879Z,0
2017-08-25T03:28:15.452Z,0
2017-08-25T03:29:16.170Z,0
2017-08-25T03:30:16.893Z,0
2017-08-25T03:31:17.619Z,0
2017-08-25T03:32:18.341Z,0
2017-08-25T03:33:19.063Z,0
2017-08-25T03:34:19.783Z,0
2017-08-25T03:35:20.507Z,0
2017-08-25T03:36:21.252Z,0
2017-08-25T03:37:21.976Z,0
2017-08-25T03:38:22.696Z,0
2017-08-25T03:39:23.417Z,0
2017-08-25T03:40:24.137Z,0
2017-08-25T03:41:24.858Z,0
2017-08-25T03:42:25.581Z,0
2017-08-25T03:43:26.323Z,0
2017-08-25T03:44:27.048Z,0
2017-08-25T03:45:27.770Z,0
2017-08-25T03:46:28.488Z,0
2017-08-25T03:47:29.210Z,0
2017-08-25T03:48:29.931Z,0
2017-08-25T03:49:30.656Z,0
2017-08-25T03:50:31.380Z,0
2017-08-25T03:51:32.102Z,0
2017-08-25T03:52:32.822Z,0
2017-08-25T03:53:33.547Z,0
2017-08-25T03:54:34.269Z,0
2017-08-25T03:55:34.990Z,0
2017-08-25T03:56:35.710Z,0
2017-08-25T03:57:36.455Z,0
2017-08-25T03:58:37.199Z,0
2017-08-25T03:59:37.920Z,0
2017-08-25T04:00:38.641Z,0
2017-08-25T04:01:39.366Z,0
2017-08-25T04:02:40.107Z,0
2017-08-25T04:03:40.833Z,0
2017-08-25T04:04:41.557Z,0
2017-08-25T04:05:42.291Z,0
2017-08-25T04:06:43.021Z,0
2017-08-25T04:07:43.745Z,0
2017-08-25T04:08:44.471Z,0
2017-08-25T04:09:45.210Z,0
2017-08-25T04:10:45.931Z,0
2017-08-25T04:11:46.654Z,0
2017-08-25T04:12:47.379Z,0
2017-08-25T04:13:48.131Z,0
2017-08-25T04:14:48.847Z,0
2017-08-25T04:15:49.568Z,0
2017-08-25T04:16:50.291Z,0
2017-08-25T04:17:51.015Z,0
2017-08-25T04:18:51.737Z,0
2017-08-25T04:19:52.463Z,0
2017-08-25T04:20:53.184Z,0
2017-08-25T04:21:53.909Z,0
2017-08-25T04:22:54.633Z,0
2017-08-25T04:23:55.357Z,0
2017-08-25T04:24:56.080Z,0
2017-08-25T04:25:56.803Z,0
2017-08-25T04:26:57.547Z,0
2017-08-25T04:27:58.271Z,0
2017-08-25T04:28:58.994Z,0
2017-08-25T04:29:59.716Z,0
2017-08-25T04:31:00.443Z,5
2017-08-25T04:32:01.167Z,5
2017-08-25T04:33:01.892Z,5
2017-08-25T04:34:02.617Z,5
2017-08-25T04:35:03.339Z,5
2017-08-25T04:36:04.067Z,5
2017-08-25T04:37:04.812Z,5
2017-08-25T04:38:05.558Z,10
2017-08-25T04:39:06.286Z,10
2017-08-25T04:40:07.010Z,10
2017-08-25T04:41:07.734Z,10
2017-08-25T04:42:08.459Z,10
2017-08-25T04:43:09.186Z,15
2017-08-25T04:44:09.909Z,15
2017-08-25T04:45:10.655Z,15
2017-08-25T04:46:11.380Z,20
2017-08-25T04:47:12.111Z,20
2017-08-25T04:48:12.831Z,20
2017-08-25T04:49:13.554Z,20
2017-08-25T04:50:14.282Z,25
2017-08-25T04:51:15.007Z,25
2017-08-25T04:52:15.735Z,25
2017-08-25T04:53:16.457Z,30
2017-08-25T04:54:17.187Z,30
2017-08-25T04:55:19.151Z,35
2017-08-25T04:56:19.878Z,35
2017-08-25T04:57:20.604Z,40
2017-08-25T05:03:09.104Z,45
2017-08-25T05:05:11.557Z,45
2017-08-25T08:49:34.031Z,1270
2017-08-25T08:50:34.767Z,1170
2017-08-25T08:51:35.528Z,1190
2017-08-25T08:52:36.274Z,915
2017-08-25T08:53:37.014Z,1375
2017-08-25T08:54:37.755Z,1300
2017-08-25T08:55:38.493Z,1230
2017-08-25T08:56:39.237Z,1280
2017-08-25T08:57:39.978Z,1405
2017-08-25T08:58:40.719Z,1435
2017-08-25T08:59:41.463Z,1475
2017-08-25T09:00:42.210Z,1575
2017-08-25T09:01:42.945Z,1565
2017-08-25T09:02:43.702Z,1495
2017-08-25T09:03:44.468Z,1195
2017-08-25T09:04:45.210Z,1470
2017-08-25T09:05:45.966Z,1370
2017-08-25T09:06:46.700Z,1380
2017-08-25T09:07:47.439Z,1350
2017-08-25T09:08:48.185Z,1520
2017-08-25T09:09:48.950Z,1395
2017-08-25T09:10:49.694Z,1395
2017-08-25T09:11:50.444Z,1485
2017-08-25T09:12:51.191Z,1580
2017-08-25T09:13:51.956Z,1460
2017-08-25T09:14:52.709Z,1425
2017-08-25T09:15:53.456Z,1530
2017-08-25T09:16:54.200Z,1675
2017-08-25T09:17:54.947Z,1590
2017-08-25T09:18:55.722Z,1500
2017-08-25T09:19:56.470Z,1350
2017-08-25T09:20:57.221Z,1425
2017-08-25T09:21:57.977Z,1435
2017-08-25T09:22:58.745Z,1580
2017-08-25T09:23:59.472Z,1650
2017-08-25T09:25:00.245Z,1735
2017-08-25T09:26:01.000Z,1045
2017-08-25T09:27:01.779Z,1720
2017-08-25T09:28:02.550Z,1695
2017-08-25T09:29:03.302Z,1640
2017-08-25T09:30:04.052Z,1660
2017-08-25T09:31:04.808Z,1720
2017-08-25T09:32:05.563Z,1785
2017-08-25T09:33:06.311Z,1805
2017-08-25T09:34:07.066Z,1680
2017-08-25T09:35:07.819Z,1725
2017-08-25T09:36:08.573Z,1710
2017-08-25T09:37:09.321Z,1670
2017-08-25T09:38:10.089Z,1565
2017-08-25T09:39:10.841Z,1360
2017-08-25T09:40:11.611Z,1705
2017-08-25T09:41:12.360Z,1790
2017-08-25T09:42:13.131Z,1740
2017-08-25T09:43:13.883Z,1665
2017-08-25T09:44:14.633Z,1765
2017-08-25T09:45:15.383Z,1785
2017-08-25T09:46:16.131Z,1730
2017-08-25T09:47:16.880Z,1635
2017-08-25T09:48:17.629Z,1465
2017-08-25T09:49:18.375Z,1700
2017-08-25T09:50:19.126Z,1720
2017-08-25T09:51:19.873Z,1860
2017-08-25T09:52:20.623Z,1860
2017-08-25T09:53:21.376Z,1690
2017-08-25T09:54:22.128Z,1450
2017-08-25T09:55:22.882Z,1500
2017-08-25T09:56:23.630Z,1530
2017-08-25T09:57:24.381Z,1550
2017-08-25T09:58:25.134Z,1655
2017-08-25T09:59:25.883Z,1620
2017-08-25T10:00:26.636Z,1785
2017-08-25T10:01:27.385Z,1845
2017-08-25T10:02:28.138Z,1805
2017-08-25T10:03:28.887Z,1815
2017-08-25T10:04:29.642Z,1745
2017-08-25T10:05:30.385Z,1725
2017-08-25T10:06:31.135Z,1645
2017-08-25T10:07:31.883Z,1670
2017-08-25T10:08:32.634Z,1645
2017-08-25T10:09:33.382Z,1780
2017-08-25T10:10:34.129Z,1565
2017-08-25T10:11:34.883Z,1555
2017-08-25T10:12:35.651Z,705
2017-08-25T10:13:36.406Z,1690
2017-08-25T10:14:37.150Z,1585
2017-08-25T10:15:37.926Z,1640
2017-08-25T10:16:38.677Z,1750
2017-08-25T10:17:39.427Z,1795
2017-08-25T10:18:40.178Z,1785
2017-08-25T10:19:40.952Z,1660
2017-08-25T10:20:41.707Z,1640
2017-08-25T10:21:42.481Z,1670
2017-08-25T10:22:43.226Z,1550
2017-08-25T10:23:43.981Z,1745
2017-08-25T10:24:44.730Z,1525
2017-08-25T10:25:45.479Z,1515
2017-08-25T10:26:46.226Z,1675
2017-08-25T10:27:47.001Z,1755
2017-08-25T10:28:47.749Z,1710
2017-08-25T10:29:48.501Z,1660
2017-08-25T10:30:49.253Z,1600
2017-08-25T10:31:50.007Z,1695
2017-08-25T10:32:50.756Z,1700
2017-08-25T10:33:51.528Z,1775
2017-08-25T10:34:52.281Z,1870
2017-08-25T10:35:53.050Z,1865
2017-08-25T10:36:53.795Z,1840
2017-08-25T10:37:54.543Z,1770
2017-08-25T10:38:55.293Z,1745
2017-08-25T10:39:56.041Z,1860
2017-08-25T10:40:56.793Z,1975
2017-08-25T10:41:57.540Z,1985
2017-08-25T10:42:58.293Z,1995
2017-08-25T10:43:59.063Z,2020
2017-08-25T10:44:59.835Z,2090
2017-08-25T10:46:00.838Z,2090
2017-08-25T10:47:01.589Z,1930
2017-08-25T10:48:02.365Z,1890
2017-08-25T10:49:03.116Z,1835
2017-08-25T10:50:03.865Z,1875
2017-08-25T10:51:04.615Z,1950
2017-08-25T10:52:05.369Z,1885
2017-08-25T10:53:06.113Z,1900
2017-08-25T10:54:06.868Z,1900
2017-08-25T10:55:07.617Z,1715
2017-08-25T10:56:08.361Z,1825
2017-08-25T10:57:09.114Z,1835
2017-08-25T10:58:09.860Z,1710
2017-08-25T10:59:10.607Z,1760
2017-08-25T11:00:11.355Z,1685
2017-08-25T11:01:12.100Z,1775
2017-08-25T11:02:12.855Z,1860
2017-08-25T11:03:13.622Z,2005
2017-08-25T11:04:14.368Z,1990
2017-08-25T11:05:15.120Z,2030
2017-08-25T11:06:15.871Z,1955
2017-08-25T11:07:16.619Z,1950
2017-08-25T11:08:17.366Z,1720
2017-08-25T11:09:18.116Z,1795
2017-08-25T11:10:18.869Z,1910
2017-08-25T11:11:19.617Z,1875
2017-08-25T11:12:20.387Z,1915
2017-08-25T11:13:21.142Z,1885
2017-08-25T11:14:21.886Z,1920
2017-08-25T11:15:22.657Z,2110
2017-08-25T11:16:23.402Z,2025
2017-08-25T11:17:24.152Z,2155
2017-08-25T11:18:24.907Z,2130
2017-08-25T11:19:25.680Z,2165
2017-08-25T11:20:26.432Z,2035
2017-08-25T11:21:27.200Z,2000
2017-08-25T11:22:27.946Z,2025
2017-08-25T11:23:28.715Z,1965
2017-08-25T11:24:29.463Z,1975
2017-08-25T11:25:30.215Z,1970
2017-08-25T11:26:30.962Z,2015
2017-08-25T11:27:31.712Z,1980
2017-08-25T11:28:32.481Z,2015
2017-08-25T11:29:33.229Z,2025
2017-08-25T11:30:33.978Z,2000
2017-08-25T11:31:34.726Z,2015
2017-08-25T11:32:35.496Z,2000
2017-08-25T11:33:36.243Z,1910
2017-08-25T11:34:36.992Z,1880
2017-08-25T11:35:37.735Z,1945
2017-08-25T11:36:38.508Z,1900
2017-08-25T11:37:39.254Z,1875
2017-08-25T11:38:39.998Z,1840
2017-08-25T11:39:40.751Z,1805
2017-08-25T11:40:41.503Z,1870
2017-08-25T11:41:42.258Z,1955
2017-08-25T11:42:43.030Z,1900
2017-08-25T11:43:43.778Z,1725
2017-08-25T11:44:44.546Z,1930
2017-08-25T11:45:45.317Z,1825
2017-08-25T11:46:46.062Z,2020
2017-08-25T11:47:46.828Z,2110
2017-08-25T11:48:47.580Z,2070
2017-08-25T11:49:48.334Z,2080
2017-08-25T11:50:49.082Z,2080
2017-08-25T11:51:49.838Z,2015
2017-08-25T11:52:50.582Z,2050
2017-08-25T11:53:51.347Z,1945
2017-08-25T11:54:52.096Z,1885
2017-08-25T11:55:52.844Z,1620
2017-08-25T11:56:53.591Z,1605
2017-08-25T11:57:54.361Z,1740
2017-08-25T11:58:55.108Z,1720
2017-08-25T11:59:55.852Z,1775
2017-08-25T12:00:56.600Z,1690
2017-08-25T12:01:57.354Z,1665
2017-08-25T12:02:58.124Z,1625
2017-08-25T12:03:58.867Z,1765
2017-08-25T12:04:59.616Z,2005
2017-08-25T12:06:00.375Z,1950
2017-08-25T12:07:01.117Z,1985
2017-08-25T12:08:01.863Z,1905
2017-08-25T12:09:02.633Z,1720
2017-08-25T12:10:03.382Z,1775
2017-08-25T12:11:04.126Z,1725
2017-08-25T12:12:04.872Z,1765
2017-08-25T12:13:05.615Z,1685
2017-08-25T12:14:06.364Z,1700
2017-08-25T12:15:07.112Z,1655
2017-08-25T12:16:07.881Z,1525
2017-08-25T12:17:08.624Z,1580
2017-08-25T12:18:09.397Z,1580
2017-08-25T12:19:10.147Z,1495
2017-08-25T12:20:10.896Z,1420
2017-08-25T12:21:11.637Z,1510
2017-08-25T12:22:12.384Z,1815
2017-08-25T12:23:13.132Z,1785
2017-08-25T12:24:13.877Z,1735
2017-08-25T12:25:14.643Z,1740
2017-08-25T12:26:15.395Z,1910
2017-08-25T12:27:16.144Z,1715
2017-08-25T12:28:16.893Z,1770
2017-08-25T12:29:17.639Z,1740
2017-08-25T12:30:18.387Z,1865
2017-08-25T12:31:19.139Z,1845
2017-08-25T12:32:19.878Z,1785
2017-08-25T12:33:20.625Z,1790
2017-08-25T12:34:21.376Z,1800
2017-08-25T12:35:22.144Z,1765
2017-08-25T12:36:22.892Z,1640
2017-08-25T12:37:23.636Z,1600
2017-08-25T12:38:24.387Z,1610
2017-08-25T12:39:25.133Z,1640
2017-08-25T12:40:25.900Z,1670
2017-08-25T12:41:26.670Z,1630
2017-08-25T12:42:27.413Z,1590
2017-08-25T12:43:28.190Z,1580
2017-08-25T12:44:28.940Z,1555
2017-08-25T12:45:29.662Z,1560
2017-08-25T12:46:30.404Z,1515
2017-08-25T12:47:31.155Z,1630
2017-08-25T12:48:31.900Z,1680
2017-08-25T12:49:32.645Z,1660
2017-08-25T12:50:33.391Z,1705
2017-08-25T12:51:34.142Z,1710
2017-08-25T12:52:34.893Z,1655
2017-08-25T12:53:35.635Z,1525
2017-08-25T12:54:36.384Z,1530
2017-08-25T12:55:37.129Z,1590
2017-08-25T12:56:37.877Z,1570
2017-08-25T12:57:38.623Z,1530
2017-08-25T12:58:39.376Z,1465
2017-08-25T12:59:40.132Z,1475
2017-08-25T13:00:40.878Z,1555
2017-08-25T13:01:41.623Z,1580
2017-08-25T13:02:42.370Z,1505
2017-08-25T13:03:43.120Z,1430
2017-08-25T13:04:43.881Z,1425
2017-08-25T13:05:44.648Z,1475
2017-08-25T13:06:45.401Z,1380
2017-08-25T13:07:46.155Z,1370
2017-08-25T13:08:46.926Z,1365
2017-08-25T13:09:47.674Z,1340
2017-08-25T13:10:48.417Z,1295
2017-08-25T13:11:49.167Z,1320
2017-08-25T13:12:49.915Z,1370
2017-08-25T13:13:50.685Z,1415
2017-08-25T13:14:51.436Z,1365
2017-08-25T13:15:52.188Z,1390
2017-08-25T13:16:52.938Z,1425
2017-08-25T13:17:53.686Z,1365
2017-08-25T13:18:54.435Z,1405
2017-08-25T13:19:55.180Z,1390
2017-08-25T13:20:55.931Z,1350
2017-08-25T13:21:56.701Z,1340
2017-08-25T13:22:57.453Z,1285
2017-08-25T13:23:58.204Z,1135
2017-08-25T13:24:58.955Z,1205
2017-08-25T13:25:59.705Z,1145
2017-08-25T13:27:00.454Z,1255
2017-08-25T13:28:01.206Z,1335
2017-08-25T13:29:01.953Z,1305
2017-08-25T13:30:02.724Z,1295
2017-08-25T13:31:03.476Z,1370
2017-08-25T13:32:04.251Z,1325
2017-08-25T13:33:05.021Z,1375
2017-08-25T13:34:05.789Z,1465
2017-08-25T13:35:06.540Z,1510
2017-08-25T13:36:07.284Z,1495
2017-08-25T13:37:08.056Z,1405
2017-08-25T13:38:08.815Z,1325
2017-08-25T13:39:09.562Z,1235
2017-08-25T13:40:10.300Z,1330
2017-08-25T13:41:11.050Z,1345
2017-08-25T13:42:11.796Z,1295
2017-08-25T13:43:12.550Z,1235
2017-08-25T13:44:13.297Z,1075
2017-08-25T13:45:14.045Z,995
2017-08-25T13:46:14.795Z,990
2017-08-25T13:47:15.569Z,1150
2017-08-25T13:48:16.349Z,1145
2017-08-25T13:49:17.092Z,1160
2017-08-25T13:50:17.843Z,1070
2017-08-25T13:51:18.624Z,975
2017-08-25T13:52:19.391Z,990
2017-08-25T13:53:20.141Z,1025
2017-08-25T13:54:20.886Z,980
2017-08-25T13:55:21.632Z,1075
2017-08-25T13:56:22.383Z,1025
2017-08-25T13:57:23.147Z,835
2017-08-25T13:58:23.892Z,765
2017-08-25T13:59:24.638Z,610
2017-08-25T14:00:25.392Z,550
2017-08-25T14:01:26.136Z,505
2017-08-25T14:02:26.886Z,485
2017-08-25T14:03:27.641Z,520
2017-08-25T14:04:28.385Z,530
2017-08-25T14:05:29.144Z,540
2017-08-25T14:06:29.886Z,695
2017-08-25T14:07:30.631Z,635
2017-08-25T14:08:31.380Z,650
2017-08-25T14:09:32.126Z,745
2017-08-25T14:10:32.870Z,625
2017-08-25T14:11:33.613Z,675
2017-08-25T14:12:34.382Z,835
2017-08-25T14:13:35.125Z,855
2017-08-25T14:14:35.866Z,650
2017-08-25T14:15:36.629Z,710
2017-08-25T14:16:37.369Z,650
2017-08-25T14:17:38.114Z,860
2017-08-25T14:18:38.872Z,945
2017-08-25T14:19:39.614Z,1020
2017-08-25T14:20:40.358Z,925
2017-08-25T14:21:41.130Z,930
2017-08-25T14:22:41.887Z,910
2017-08-25T14:23:42.626Z,820
2017-08-25T14:24:43.393Z,805
2017-08-25T14:25:44.150Z,730
2017-08-25T14:26:44.889Z,710
2017-08-25T14:27:45.630Z,660
2017-08-25T14:28:46.367Z,640
2017-08-25T14:29:47.105Z,685
2017-08-25T14:30:47.846Z,710
2017-08-25T14:31:48.586Z,725
2017-08-25T14:32:49.323Z,560
2017-08-25T14:33:50.068Z,550
2017-08-25T14:34:50.814Z,550
2017-08-25T14:35:51.551Z,505
2017-08-25T14:36:52.290Z,505
2017-08-25T14:37:53.049Z,340
2017-08-25T14:38:53.789Z,320
2017-08-25T14:39:54.545Z,300
2017-08-25T14:40:55.279Z,285
2017-08-25T14:41:56.016Z,275
2017-08-25T14:42:56.752Z,260
2017-08-25T14:43:57.488Z,245
2017-08-25T14:44:58.226Z,235
2017-08-25T14:45:58.979Z,235
2017-08-25T14:46:59.721Z,225
2017-08-25T14:48:00.458Z,225
2017-08-25T14:49:01.492Z,230
2017-08-25T14:50:02.226Z,235
2017-08-25T14:51:02.994Z,240
2017-08-25T14:52:03.726Z,245
2017-08-25T14:53:04.466Z,265
2017-08-25T14:54:05.217Z,300
2017-08-25T14:55:05.956Z,430
2017-08-25T14:56:06.694Z,330
2017-08-25T14:57:07.449Z,345
2017-08-25T14:58:08.188Z,350
2017-08-25T14:59:08.941Z,345
2017-08-25T15:00:09.697Z,380
2017-08-25T15:01:10.436Z,345
2017-08-25T15:02:11.189Z,480
2017-08-25T15:03:11.954Z,450
2017-08-25T15:04:12.709Z,370
2017-08-25T15:05:13.470Z,350
2017-08-25T15:06:14.228Z,345
2017-08-25T15:07:14.964Z,325
2017-08-25T15:08:15.719Z,305
2017-08-25T15:09:16.476Z,295
2017-08-25T15:10:17.221Z,290
2017-08-25T15:11:17.970Z,285
2017-08-25T15:12:18.769Z,275
2017-08-25T15:13:19.504Z,275
2017-08-25T15:14:20.259Z,270
2017-08-25T15:15:20.995Z,265
2017-08-25T15:16:21.766Z,260
2017-08-25T15:17:22.493Z,265
2017-08-25T15:18:23.229Z,270
2017-08-25T15:19:23.962Z,275
2017-08-25T15:20:24.696Z,265
2017-08-25T15:21:25.457Z,255
2017-08-25T15:22:26.211Z,235
2017-08-25T15:23:26.948Z,225
2017-08-25T15:24:27.677Z,215
2017-08-25T15:25:28.435Z,210
2017-08-25T15:26:29.187Z,215
2017-08-25T15:27:29.920Z,215
2017-08-25T15:28:30.654Z,225
2017-08-25T15:29:31.386Z,250
2017-08-25T15:30:32.141Z,255
2017-08-25T15:31:32.897Z,300
2017-08-25T15:32:33.636Z,270
2017-08-25T15:33:34.386Z,315
2017-08-25T15:34:35.120Z,350
2017-08-25T15:35:35.877Z,365
2017-08-25T15:36:36.612Z,340
2017-08-25T15:37:37.348Z,325
2017-08-25T15:38:38.082Z,295
2017-08-25T15:39:38.836Z,335
2017-08-25T15:40:39.573Z,370
2017-08-25T15:41:40.304Z,360
2017-08-25T15:42:41.041Z,355
2017-08-25T15:43:41.776Z,280
2017-08-25T15:44:42.510Z,305
2017-08-25T15:45:43.263Z,335
2017-08-25T15:46:44.017Z,295
2017-08-25T15:47:44.754Z,265
2017-08-25T15:48:45.487Z,260
2017-08-25T15:49:46.239Z,265
2017-08-25T15:50:46.971Z,240
2017-08-25T15:51:47.705Z,230
2017-08-25T15:52:48.502Z,225
2017-08-25T15:53:49.250Z,220
2017-08-25T15:54:49.975Z,210
2017-08-25T15:55:50.709Z,210
2017-08-25T15:56:51.445Z,230
2017-08-25T15:57:52.189Z,230
2017-08-25T15:58:52.990Z,220
2017-08-25T15:59:53.764Z,205
2017-08-25T16:00:54.530Z,205
2017-08-25T16:01:55.275Z,210
2017-08-25T16:02:56.022Z,200
2017-08-25T16:03:56.756Z,200
2017-08-25T16:04:57.491Z,195
2017-08-25T16:05:58.279Z,190
2017-08-25T16:06:59.023Z,185
2017-08-25T16:07:59.758Z,180
2017-08-25T16:09:00.491Z,180
2017-08-25T16:10:01.222Z,185
2017-08-25T16:11:01.977Z,190
2017-08-25T16:12:02.712Z,195
2017-08-25T16:13:03.464Z,195
2017-08-25T16:14:04.200Z,200
2017-08-25T16:15:04.955Z,205
2017-08-25T16:16:05.688Z,200
2017-08-25T16:17:06.438Z,205
2017-08-25T16:18:07.177Z,205
2017-08-25T16:19:07.905Z,200
2017-08-25T16:20:08.639Z,195
2017-08-25T16:21:09.368Z,190
2017-08-25T16:22:10.107Z,190
2017-08-25T16:23:10.839Z,190
2017-08-25T16:24:11.587Z,190
2017-08-25T16:25:12.325Z,185
2017-08-25T16:26:13.071Z,175
2017-08-25T16:27:13.800Z,170
2017-08-25T16:28:14.556Z,160
2017-08-25T16:29:15.288Z,150
2017-08-25T16:30:16.030Z,140
2017-08-25T16:31:16.783Z,140
2017-08-25T16:32:17.516Z,135
2017-08-25T16:33:18.252Z,130
2017-08-25T16:34:18.981Z,125
2017-08-25T16:35:19.733Z,120
2017-08-25T16:36:20.482Z,110
2017-08-25T16:37:21.202Z,100
2017-08-25T16:38:21.934Z,100
2017-08-25T16:39:22.664Z,100
2017-08-25T16:40:23.396Z,100
2017-08-25T16:41:24.139Z,105
2017-08-25T16:42:24.860Z,100
2017-08-25T16:43:25.594Z,95
2017-08-25T16:44:26.324Z,90
2017-08-25T16:45:27.056Z,90
2017-08-25T16:46:27.783Z,90
2017-08-25T16:47:28.534Z,95
2017-08-25T16:48:29.282Z,95
2017-08-25T16:49:30.013Z,100
2017-08-25T16:50:30.743Z,100
2017-08-25T16:51:31.471Z,95
2017-08-25T16:52:32.221Z,95
2017-08-25T16:53:32.950Z,95
2017-08-25T16:54:33.682Z,90
2017-08-25T16:55:34.408Z,95
2017-08-25T16:56:35.141Z,95
2017-08-25T16:57:35.897Z,95
2017-08-25T16:58:36.653Z,100
2017-08-25T16:59:37.406Z,105
2017-08-25T17:00:38.139Z,110
2017-08-25T17:01:38.894Z,115
2017-08-25T17:02:39.653Z,110
2017-08-25T17:03:40.399Z,110
2017-08-25T17:04:41.133Z,105
2017-08-25T17:05:41.864Z,105
2017-08-25T17:06:42.593Z,105
2017-08-25T17:07:43.325Z,105
2017-08-25T17:08:44.055Z,105
2017-08-25T17:09:44.784Z,105
2017-08-25T17:10:45.518Z,105
2017-08-25T17:11:46.274Z,100
2017-08-25T17:12:47.007Z,100
2017-08-25T17:13:47.737Z,95
2017-08-25T17:14:48.470Z,95
2017-08-25T17:15:49.221Z,90
2017-08-25T17:16:49.952Z,90
2017-08-25T17:17:50.688Z,85
2017-08-25T17:18:51.416Z,85
2017-08-25T17:19:52.153Z,80
2017-08-25T17:20:52.880Z,80
2017-08-25T17:21:53.611Z,75
2017-08-25T17:22:54.366Z,75
2017-08-25T17:23:55.097Z,70
2017-08-25T17:24:55.829Z,70
2017-08-25T17:25:56.584Z,70
2017-08-25T17:26:57.315Z,65
2017-08-25T17:27:58.075Z,60
2017-08-25T17:28:58.809Z,60
2017-08-25T17:29:59.540Z,55
2017-08-25T17:31:00.294Z,55
2017-08-25T17:32:01.029Z,50
2017-08-25T17:33:01.762Z,45
2017-08-25T17:34:02.505Z,45
2017-08-25T17:35:03.258Z,45
2017-08-25T17:36:03.987Z,40
2017-08-25T17:37:04.723Z,40
2017-08-25T17:38:05.453Z,40
2017-08-25T17:39:06.184Z,40
2017-08-25T17:40:06.920Z,35
2017-08-25T17:41:07.649Z,35
2017-08-25T17:42:08.404Z,35
2017-08-25T17:43:09.112Z,35
2017-08-25T17:44:09.843Z,30
2017-08-25T17:45:10.568Z,30
2017-08-25T17:46:11.302Z,30
2017-08-25T17:47:12.043Z,30
2017-08-25T17:48:12.777Z,30
2017-08-25T17:49:13.533Z,30
2017-08-25T17:50:14.281Z,30
2017-08-25T17:51:15.011Z,30
2017-08-25T17:52:15.759Z,30
2017-08-25T17:53:16.469Z,25
2017-08-25T17:54:17.202Z,25
2017-08-25T17:55:17.951Z,25
2017-08-25T17:56:18.685Z,25
2017-08-25T17:57:19.414Z,20
2017-08-25T17:58:20.144Z,20